Time;durP1;ratioP1;P1;durP2;ratioP2;P2;SDS_P1;SDS_P2;PMS_P1;PMS_P2;Temp;Humidity;BMP_temperature;BMP_pressure;BME280_temperature;BME280_humidity;BME280_pressure;Samples;Min_cycle;Max_cycle;Signal;HPM_P1;HPM_P2
2024/03/11 00:01:03;;;;;;;10.52;9.43;;;;;;;21.74;36.49;100068.41;5108047;27;20050;-75
2024/03/11 00:03:29;;;;;;;10.68;9.10;;;;;;;21.64;36.22;100052.94;5081570;28;20174;-75
2024/03/11 00:05:55;;;;;;;11.43;9.82;;;;;;;21.74;36.42;100071.03;5107222;27;20131;-74
2024/03/11 00:08:22;;;;;;;10.30;8.75;;;;;;;21.69;36.21;100066.34;5082675;27;20649;-74
2024/03/11 00:10:55;;;;;;;10.45;9.35;;;;;;;21.52;36.62;100039.50;5080897;27;20027;-74
2024/03/11 00:13:24;;;;;;;10.43;9.32;;;;;;;21.68;36.31;100065.53;5082602;27;20063;-74
2024/03/11 00:15:53;;;;;;;10.73;9.60;;;;;;;21.68;36.62;100056.78;5101039;27;20039;-75
2024/03/11 00:18:18;;;;;;;12.60;9.70;;;;;;;21.66;36.57;100057.00;5101029;27;20044;-74
2024/03/11 00:20:46;;;;;;;9.57;8.57;;;;;;;21.64;36.31;100061.69;5096637;27;20375;-74
2024/03/11 00:23:13;;;;;;;12.27;10.40;;;;;;;21.63;36.53;100053.94;5108634;27;20648;-75
2024/03/11 00:25:40;;;;;;;10.13;8.80;;;;;;;21.61;36.49;100048.88;5080878;28;20510;-74
2024/03/11 00:28:07;;;;;;;10.35;9.32;;;;;;;21.62;36.58;100052.31;5102796;27;20061;-75
2024/03/11 00:30:35;;;;;;;10.43;9.32;;;;;;;21.58;36.35;100049.28;5066078;28;20024;-74
2024/03/11 00:33:02;;;;;;;11.32;9.65;;;;;;;21.59;36.54;100050.09;5070479;27;20478;-75
2024/03/11 00:35:28;;;;;;;11.55;9.95;;;;;;;21.46;36.42;100036.91;5101934;27;20038;-74
2024/03/11 00:37:54;;;;;;;10.35;9.23;;;;;;;21.52;36.56;100044.81;5076119;28;20151;-74
2024/03/11 00:40:20;;;;;;;10.40;8.73;;;;;;;21.47;36.49;100041.97;5087988;27;20088;-74
2024/03/11 00:42:46;;;;;;;9.82;8.77;;;;;;;21.46;36.24;100045.66;5063666;27;20055;-77
2024/03/11 00:45:12;;;;;;;10.63;9.43;;;;;;;21.49;36.54;100061.13;5082174;28;20040;-74
2024/03/11 00:47:41;;;;;;;11.02;9.43;;;;;;;21.49;36.48;100060.31;5100112;27;20053;-74
2024/03/11 00:50:12;;;;;;;11.15;9.18;;;;;;;21.47;36.36;100060.53;5101175;27;20376;-74
2024/03/11 00:52:41;;;;;;;11.20;9.43;;;;;;;21.48;36.49;100058.69;5099573;27;20032;-74
2024/03/11 00:55:08;;;;;;;11.07;9.18;;;;;;;21.38;36.65;100049.38;5086645;27;20054;-74
2024/03/11 00:57:37;;;;;;;11.80;9.48;;;;;;;21.45;36.51;100051.16;5091058;27;20786;-74
2024/03/11 01:00:11;;;;;;;10.85;9.68;;;;;;;21.36;36.49;100053.22;5099208;27;20039;-76
2024/03/11 01:02:37;;;;;;;10.45;8.85;;;;;;;21.40;36.54;100057.91;5102785;27;20050;-74
2024/03/11 01:05:03;;;;;;;11.27;9.48;;;;;;;21.40;36.42;100062.41;5098781;27;20089;-74
2024/03/11 01:07:29;;;;;;;9.75;8.75;;;;;;;21.41;36.57;100059.53;5097595;27;20105;-74
2024/03/11 01:09:55;;;;;;;10.80;9.38;;;;;;;21.38;36.58;100057.31;5095876;27;20031;-76
2024/03/11 01:12:24;;;;;;;10.27;8.90;;;;;;;21.29;36.66;100040.00;5101998;27;20095;-74
2024/03/11 01:14:51;;;;;;;10.63;9.00;;;;;;;21.37;36.39;100062.81;5078919;27;20043;-74
2024/03/11 01:17:18;;;;;;;11.07;8.68;;;;;;;21.34;36.37;100055.25;5068979;27;20157;-74
2024/03/11 01:19:44;;;;;;;10.23;8.98;;;;;;;21.30;36.56;100052.22;5094701;27;20441;-76
2024/03/11 01:22:12;;;;;;;9.77;8.75;;;;;;;21.33;36.69;100054.44;5067984;27;20130;-74
2024/03/11 01:24:39;;;;;;;11.07;9.27;;;;;;;21.34;36.47;100060.56;5095654;27;20057;-75
2024/03/11 01:27:10;;;;;;;11.43;8.73;;;;;;;21.32;36.72;100065.25;5114632;27;20050;-76
2024/03/11 01:29:38;;;;;;;11.20;9.20;;;;;;;21.29;36.67;100063.03;5098946;27;20032;-76
2024/03/11 01:32:06;;;;;;;9.90;8.68;;;;;;;21.29;36.58;100065.66;5105610;27;20378;-76
2024/03/11 01:34:33;;;;;;;10.45;8.82;;;;;;;21.20;36.70;100057.13;5108884;27;20071;-76
2024/03/11 01:37:00;;;;;;;9.98;8.85;;;;;;;21.18;36.62;100053.84;5074057;27;20051;-75
2024/03/11 01:39:42;;;;;;;11.55;8.75;;;;;;;21.22;36.69;100059.56;5076550;28;20056;-75
2024/03/11 01:42:14;;;;;;;10.70;8.77;;;;;;;21.12;36.63;100049.38;5094980;27;20039;-75
2024/03/11 01:44:43;;;;;;;10.85;8.93;;;;;;;21.21;36.76;100073.81;5096022;28;20044;-75
2024/03/11 01:47:12;;;;;;;10.38;8.85;;;;;;;21.21;36.63;100056.09;5077046;28;20473;-75
2024/03/11 01:49:41;;;;;;;10.63;8.88;;;;;;;21.19;36.48;100062.63;5095653;27;20367;-75
2024/03/11 01:52:10;;;;;;;10.65;8.98;;;;;;;21.19;36.36;100065.28;5103953;27;20112;-77
2024/03/11 01:54:38;;;;;;;11.30;9.40;;;;;;;21.04;36.43;100037.19;5083489;27;20031;-75
2024/03/11 01:57:10;;;;;;;10.95;9.05;;;;;;;21.17;36.43;100056.69;5084037;28;20067;-75
2024/03/11 01:59:37;;;;;;;10.20;9.13;;;;;;;21.04;36.57;100041.66;5100450;27;20512;-75
2024/03/11 02:02:08;;;;;;;10.32;8.57;;;;;;;21.15;36.60;100061.38;5102736;27;20047;-74
2024/03/11 02:04:35;;;;;;;9.43;8.10;;;;;;;21.15;36.38;100062.19;5086232;27;20028;-74
2024/03/11 02:07:02;;;;;;;10.10;8.07;;;;;;;21.15;36.56;100058.75;5105787;27;20936;-74
2024/03/11 02:09:28;;;;;;;10.82;9.00;;;;;;;21.09;36.69;100050.63;5080234;28;20035;-74
2024/03/11 02:11:53;;;;;;;10.23;9.00;;;;;;;21.13;36.79;100051.00;5102384;27;20043;-74
2024/03/11 02:14:19;;;;;;;9.98;8.90;;;;;;;21.06;36.70;100044.91;5083668;28;20043;-74
2024/03/11 02:16:45;;;;;;;9.68;8.25;;;;;;;21.08;36.69;100046.34;5085499;28;20067;-75
2024/03/11 02:19:17;;;;;;;10.15;8.77;;;;;;;21.09;36.67;100049.78;5083515;27;20068;-74
2024/03/11 02:21:46;;;;;;;9.65;8.48;;;;;;;21.08;36.39;100054.28;5122641;27;20046;-75
2024/03/11 02:24:16;;;;;;;10.70;8.80;;;;;;;21.07;36.62;100046.53;5074299;27;20044;-76
2024/03/11 02:26:42;;;;;;;;;;;;;;;21.05;36.51;100040.66;5114588;27;21036;-74
2024/03/11 02:29:09;;;;;;;9.48;8.50;;;;;;;21.07;36.70;100052.66;5110497;27;19920;-76
2024/03/11 02:31:35;;;;;;;9.02;8.10;;;;;;;21.06;36.42;100051.03;5087263;27;20557;-76
2024/03/11 02:34:01;;;;;;;9.98;8.68;;;;;;;20.99;36.72;100036.16;5106764;27;20035;-74
2024/03/11 02:36:26;;;;;;;9.93;8.70;;;;;;;21.00;36.52;100043.09;5085329;28;20069;-76
2024/03/11 02:38:53;;;;;;;9.23;8.02;;;;;;;20.97;36.54;100039.00;5107664;27;20201;-76
2024/03/11 02:41:19;;;;;;;9.18;7.93;;;;;;;21.01;36.73;100042.09;5085970;28;20698;-72
2024/03/11 02:43:45;;;;;;;9.45;8.23;;;;;;;20.99;36.67;100046.75;5081541;28;20073;-75
2024/03/11 02:46:10;;;;;;;9.27;8.32;;;;;;;20.99;36.46;100050.22;5071140;28;20035;-76
2024/03/11 02:48:37;;;;;;;10.18;8.70;;;;;;;20.97;36.53;100035.56;5101065;28;20585;-76
2024/03/11 02:51:04;;;;;;;9.85;8.50;;;;;;;21.00;36.54;100040.44;5072737;28;20039;-76
2024/03/11 02:53:30;;;;;;;9.98;8.10;;;;;;;20.98;36.71;100038.00;5084359;28;20381;-76
2024/03/11 02:55:56;;;;;;;9.30;8.32;;;;;;;20.89;36.86;100035.78;5100765;28;20054;-76
2024/03/11 02:58:24;;;;;;;9.50;8.05;;;;;;;20.96;36.69;100037.38;5100862;28;20048;-75
2024/03/11 03:00:49;;;;;;;10.15;8.00;;;;;;;20.93;36.59;100035.16;5087768;28;20367;-75
2024/03/11 03:03:16;;;;;;;10.00;8.63;;;;;;;20.94;36.54;100042.06;5080119;28;20031;-75
2024/03/11 03:05:42;;;;;;;8.95;7.88;;;;;;;20.92;36.62;100041.47;5096028;28;20036;-75
2024/03/11 03:08:07;;;;;;;9.65;8.18;;;;;;;20.94;36.72;100047.38;5081362;28;21618;-75
2024/03/11 03:10:33;;;;;;;9.40;7.93;;;;;;;20.89;36.65;100035.78;5095011;28;20097;-76
2024/03/11 03:12:58;;;;;;;10.10;8.35;;;;;;;20.91;36.49;100046.97;5103905;28;20088;-76
2024/03/11 03:15:24;;;;;;;9.13;8.15;;;;;;;20.80;36.52;100029.88;5068811;28;20146;-76
2024/03/11 03:17:50;;;;;;;9.75;8.38;;;;;;;20.85;36.54;100034.56;5068774;28;20047;-75
2024/03/11 03:20:18;;;;;;;9.70;8.25;;;;;;;20.88;36.89;100045.56;5069021;28;20058;-75
2024/03/11 03:22:44;;;;;;;11.32;8.55;;;;;;;20.88;36.81;100045.56;5068487;28;20906;-75
2024/03/11 03:25:09;;;;;;;9.30;8.05;;;;;;;20.82;36.82;100035.78;5103303;28;20075;-75
2024/03/11 03:27:35;;;;;;;9.55;8.27;;;;;;;20.80;36.82;100043.09;5085678;28;20075;-75
2024/03/11 03:30:01;;;;;;;10.13;8.68;;;;;;;20.88;36.48;100042.09;5080147;28;20703;-75
2024/03/11 03:32:27;;;;;;;10.30;8.55;;;;;;;20.87;36.65;100045.75;5104258;28;20077;-76
2024/03/11 03:34:53;;;;;;;9.07;7.72;;;;;;;20.81;36.73;100039.44;5101298;28;20036;-76
2024/03/11 03:37:18;;;;;;;8.45;7.43;;;;;;;20.84;36.73;100052.28;5104421;28;20031;-76
2024/03/11 03:39:44;;;;;;;10.35;8.60;;;;;;;20.76;36.78;100037.41;5102578;28;20043;-75
2024/03/11 03:42:10;;;;;;;9.80;8.30;;;;;;;20.81;36.77;100042.91;5074869;28;20115;-76
2024/03/11 03:44:36;;;;;;;9.57;7.78;;;;;;;20.64;36.76;100011.78;5081321;28;20067;-76
2024/03/11 03:47:02;;;;;;;8.88;7.53;;;;;;;20.77;36.75;100038.22;5103894;28;20089;-76
2024/03/11 03:49:27;;;;;;;8.80;7.90;;;;;;;20.81;36.60;100047.38;5097419;28;20119;-75
2024/03/11 03:51:53;;;;;;;10.10;8.15;;;;;;;20.79;36.83;100044.94;5096245;28;20129;-76
2024/03/11 03:54:21;;;;;;;9.15;8.18;;;;;;;20.78;36.94;100045.97;5098730;27;20067;-75
2024/03/11 03:56:47;;;;;;;10.05;8.88;;;;;;;20.77;36.69;100046.97;5100767;27;20661;-74
2024/03/11 03:59:12;;;;;;;10.00;8.30;;;;;;;20.74;36.66;100038.63;5109550;27;20040;-75
2024/03/11 04:01:38;;;;;;;9.23;8.25;;;;;;;20.80;36.60;100048.41;5099456;27;20363;-75
2024/03/11 04:04:04;;;;;;;9.13;7.90;;;;;;;20.73;36.78;100037.81;5103884;27;20036;-75
2024/03/11 04:06:32;;;;;;;8.88;7.63;;;;;;;20.78;36.77;100050.44;5056576;27;20036;-73
2024/03/11 04:08:58;;;;;;;8.73;7.72;;;;;;;20.77;36.75;100056.75;5107193;27;20042;-75
2024/03/11 04:11:23;;;;;;;10.27;8.05;;;;;;;20.67;36.58;100035.19;5097233;27;20124;-75
2024/03/11 04:13:49;;;;;;;9.65;8.57;;;;;;;20.75;36.70;100048.19;5076862;27;20051;-74
2024/03/11 04:16:16;;;;;;;10.13;8.15;;;;;;;20.71;36.76;100047.00;5080216;28;20130;-74
2024/03/11 04:18:42;;;;;;;9.05;7.97;;;;;;;20.73;36.80;100053.69;5097423;27;20065;-75
2024/03/11 04:21:08;;;;;;;9.80;8.07;;;;;;;20.73;36.79;100048.41;5105324;27;20036;-75
2024/03/11 04:23:34;;;;;;;9.80;8.40;;;;;;;20.71;36.88;100047.81;5108222;27;20028;-75
2024/03/11 04:26:03;;;;;;;9.13;7.75;;;;;;;20.72;36.78;100049.44;5081428;27;20055;-75
2024/03/11 04:28:28;;;;;;;9.70;8.20;;;;;;;20.67;36.74;100043.13;5102674;27;20395;-75
2024/03/11 04:30:55;;;;;;;8.60;7.70;;;;;;;20.70;36.76;100050.66;5085519;28;20036;-74
2024/03/11 04:33:22;;;;;;;9.80;7.88;;;;;;;20.70;36.52;100048.81;5099319;27;20036;-75
2024/03/11 04:35:49;;;;;;;9.27;8.23;;;;;;;20.68;36.81;100052.69;5081232;27;20045;-74
2024/03/11 04:38:15;;;;;;;8.32;7.47;;;;;;;20.67;36.93;100059.00;5116299;27;20052;-75
2024/03/11 04:40:47;;;;;;;8.45;7.53;;;;;;;20.66;36.72;100062.66;5075567;28;20980;-75
2024/03/11 04:43:13;;;;;;;8.93;7.82;;;;;;;20.62;36.84;100058.78;5086657;28;20130;-75
2024/03/11 04:45:39;;;;;;;8.88;7.72;;;;;;;20.69;36.80;100064.91;5076404;28;20036;-75
2024/03/11 04:48:07;;;;;;;9.82;7.68;;;;;;;20.59;36.90;100053.91;5095929;27;20035;-75
2024/03/11 04:50:34;;;;;;;12.60;8.07;;;;;;;20.65;36.78;100061.84;5096772;27;20043;-75
2024/03/11 04:53:02;;;;;;;10.02;8.45;;;;;;;20.58;37.03;100053.09;5101182;27;20043;-75
2024/03/11 04:55:28;;;;;;;8.27;7.43;;;;;;;20.63;36.92;100073.63;5081587;27;20056;-75
2024/03/11 04:57:58;;;;;;;9.43;8.18;;;;;;;20.64;36.92;100069.97;5079478;28;20039;-75
2024/03/11 05:00:27;;;;;;;9.50;8.10;;;;;;;20.58;37.01;100078.72;5078297;27;20047;-75
2024/03/11 05:02:57;;;;;;;10.27;8.57;;;;;;;20.61;37.03;100073.84;5086515;27;20395;-73
2024/03/11 05:05:24;;;;;;;9.20;7.57;;;;;;;20.60;36.75;100072.22;5079039;27;20101;-75
2024/03/11 05:07:50;;;;;;;8.82;7.65;;;;;;;20.54;36.84;100066.94;5079184;28;20104;-75
2024/03/11 05:10:17;;;;;;;9.80;8.07;;;;;;;20.59;36.94;100072.41;5075700;27;20043;-75
2024/03/11 05:12:43;;;;;;;8.75;7.45;;;;;;;20.61;36.75;100078.31;5092734;27;20024;-74
2024/03/11 05:15:09;;;;;;;8.73;7.82;;;;;;;20.58;36.91;100078.72;5092928;27;20047;-75
2024/03/11 05:17:36;;;;;;;8.93;7.95;;;;;;;20.58;36.98;100074.25;5097748;27;20058;-75
2024/03/11 05:20:06;;;;;;;8.38;7.25;;;;;;;20.58;36.94;100081.38;5096886;27;20084;-75
2024/03/11 05:22:34;;;;;;;8.65;7.68;;;;;;;20.56;36.94;100081.56;5101817;27;20039;-75
2024/03/11 05:25:00;;;;;;;8.35;7.45;;;;;;;20.57;36.91;100080.56;5099894;27;20039;-75
2024/03/11 05:27:25;;;;;;;9.70;8.15;;;;;;;20.60;36.89;100087.25;5092057;27;20046;-75
2024/03/11 05:29:51;;;;;;;9.45;7.75;;;;;;;20.63;36.81;100078.91;5111427;27;20395;-75
2024/03/11 05:32:17;;;;;;;9.77;7.30;;;;;;;20.60;36.73;100084.63;5085550;28;20031;-76
2024/03/11 05:34:45;;;;;;;9.15;7.80;;;;;;;20.72;36.70;100081.19;5106254;27;20078;-77
2024/03/11 05:37:11;;;;;;;9.32;7.57;;;;;;;20.73;36.63;100076.69;5069661;27;20114;-75
2024/03/11 05:39:37;;;;;;;10.85;7.82;;;;;;;20.79;36.71;100078.53;5105762;27;20197;-74
2024/03/11 05:42:05;;;;;;;10.00;7.78;;;;;;;20.80;36.71;100080.97;5082986;28;20067;-75
2024/03/11 05:44:32;;;;;;;9.68;7.28;;;;;;;20.73;36.73;100072.22;5071403;28;20040;-73
2024/03/11 05:47:00;;;;;;;8.07;6.90;;;;;;;20.81;36.66;100090.53;5097151;27;20081;-75
2024/03/11 05:49:28;;;;;;;8.65;7.57;;;;;;;20.80;36.85;100088.91;5077806;27;20104;-75
2024/03/11 05:51:57;;;;;;;9.13;6.90;;;;;;;20.77;36.92;100077.91;5100326;27;20465;-76
2024/03/11 05:54:24;;;;;;;8.90;7.18;;;;;;;20.81;36.69;100089.72;5073865;28;20643;-76
2024/03/11 05:56:54;;;;;;;9.68;8.07;;;;;;;20.78;36.84;100082.19;5097144;27;20151;-75
2024/03/11 05:59:27;;;;;;;8.15;7.35;;;;;;;20.77;36.95;100088.50;5095734;27;20055;-75
2024/03/11 06:01:55;;;;;;;9.60;7.50;;;;;;;20.75;36.96;100086.06;5084404;27;20032;-76
2024/03/11 06:04:21;;;;;;;9.43;7.57;;;;;;;20.76;36.99;100082.38;5099128;27;20027;-76
2024/03/11 06:06:48;;;;;;;9.32;8.02;;;;;;;20.68;36.91;100068.56;5095231;27;20038;-75
2024/03/11 06:09:16;;;;;;;8.40;7.15;;;;;;;20.76;36.99;100084.22;5097624;27;20065;-76
2024/03/11 06:11:46;;;;;;;8.80;7.38;;;;;;;20.74;36.83;100081.78;5092523;27;20043;-76
2024/03/11 06:14:12;;;;;;;9.35;7.25;;;;;;;20.74;37.11;100081.78;5095732;27;20136;-75
2024/03/11 06:16:39;;;;;;;8.48;6.95;;;;;;;20.71;36.98;100090.13;5083991;28;20092;-76
2024/03/11 06:19:08;;;;;;;7.88;7.07;;;;;;;20.71;37.20;100084.84;5084127;27;20043;-76
2024/03/11 06:21:37;;;;;;;9.13;7.75;;;;;;;20.75;37.10;100093.19;5098526;27;20084;-76
2024/03/11 06:24:05;;;;;;;9.33;8.00;;;;;;;20.72;37.08;100091.75;5100560;27;20478;-76
2024/03/11 06:26:34;;;;;;;8.90;7.30;;;;;;;20.72;37.04;100091.75;5107686;27;20045;-76
2024/03/11 06:29:01;;;;;;;8.52;6.82;;;;;;;20.69;37.12;100083.44;5086270;27;20533;-76
2024/03/11 06:31:30;;;;;;;8.32;6.55;;;;;;;20.71;36.99;100102.56;5081659;27;20466;-76
2024/03/11 06:33:56;;;;;;;7.72;6.93;;;;;;;20.67;37.37;100096.03;5095245;27;20036;-76
2024/03/11 06:36:22;;;;;;;8.45;7.50;;;;;;;20.71;37.11;100102.56;5085627;27;20672;-76
2024/03/11 06:38:48;;;;;;;8.32;7.13;;;;;;;20.71;37.11;100113.13;5070669;28;20088;-75
2024/03/11 06:41:15;;;;;;;9.35;7.40;;;;;;;20.67;37.20;100102.16;5086200;27;20054;-76
2024/03/11 06:43:41;;;;;;;7.82;7.03;;;;;;;20.69;37.03;100104.59;5081414;28;20036;-74
2024/03/11 06:46:07;;;;;;;8.43;6.88;;;;;;;20.67;37.27;100102.16;5078767;27;20039;-75
2024/03/11 06:48:32;;;;;;;8.60;7.50;;;;;;;20.68;37.21;100108.25;5076764;28;20032;-75
2024/03/11 06:50:58;;;;;;;8.88;7.10;;;;;;;20.63;37.22;100111.47;5083528;28;20670;-75
2024/03/11 06:53:23;;;;;;;8.10;6.60;;;;;;;20.65;37.20;100109.47;5070567;28;20043;-76
2024/03/11 06:55:49;;;;;;;8.30;7.10;;;;;;;20.68;37.22;100113.53;5085483;28;20040;-75
2024/03/11 06:58:15;;;;;;;8.40;6.90;;;;;;;20.68;37.23;100114.34;5096133;28;21695;-74
2024/03/11 07:00:42;;;;;;;8.93;7.13;;;;;;;20.68;37.29;100110.91;5084394;28;20050;-74
2024/03/11 07:03:07;;;;;;;7.85;6.72;;;;;;;20.68;37.22;100102.97;5092694;28;20052;-75
2024/03/11 07:05:33;;;;;;;7.90;7.10;;;;;;;20.68;37.27;100103.78;5103153;28;20040;-75
2024/03/11 07:07:59;;;;;;;7.88;6.78;;;;;;;20.68;37.11;100105.59;5100670;28;20066;-75
2024/03/11 07:10:25;;;;;;;7.72;6.82;;;;;;;20.65;37.20;100103.38;5079263;28;20028;-74
2024/03/11 07:12:50;;;;;;;7.85;6.63;;;;;;;20.67;37.04;100103.97;5092197;28;20047;-75
2024/03/11 07:15:16;;;;;;;7.82;6.32;;;;;;;20.66;37.13;100112.94;5082031;28;20120;-75
2024/03/11 07:17:42;;;;;;;9.18;6.93;;;;;;;20.62;37.33;100109.84;5104143;28;20531;-75
2024/03/11 07:20:08;;;;;;;7.88;7.07;;;;;;;20.62;37.47;100109.84;5074325;28;20747;-75
2024/03/11 07:22:35;;;;;;;8.27;6.65;;;;;;;20.65;37.20;100124.53;5066035;28;20047;-75
2024/03/11 07:25:09;;;;;;;8.73;6.90;;;;;;;20.65;37.13;100124.53;5101661;28;20370;-74
2024/03/11 07:27:34;;;;;;;8.60;6.60;;;;;;;20.64;37.10;100126.34;5108512;28;20039;-75
2024/03/11 07:30:00;;;;;;;7.50;6.65;;;;;;;20.60;37.07;100113.72;5090089;27;20701;-74
2024/03/11 07:32:26;;;;;;;7.88;6.47;;;;;;;20.62;37.32;100123.06;5107439;27;20038;-74
2024/03/11 07:34:52;;;;;;;8.07;7.00;;;;;;;20.59;37.19;100120.03;5117805;27;20063;-74
2024/03/11 07:37:17;;;;;;;9.07;7.22;;;;;;;20.62;37.30;100125.72;5070511;28;20063;-74
2024/03/11 07:39:44;;;;;;;7.28;6.20;;;;;;;20.61;37.34;100118.81;5082639;28;20059;-74
2024/03/11 07:42:10;;;;;;;7.63;6.80;;;;;;;20.62;37.11;100116.97;5102947;27;20070;-76
2024/03/11 07:44:36;;;;;;;8.15;6.47;;;;;;;20.71;37.11;100118.44;5072083;27;20035;-74
2024/03/11 07:47:02;;;;;;;9.32;6.43;;;;;;;20.88;37.97;100119.66;5099109;27;20220;-72
2024/03/11 07:49:29;;;;;;;7.82;6.30;;;;;;;20.98;38.08;100106.00;5098119;27;21392;-71
2024/03/11 07:51:59;;;;;;;8.48;6.32;;;;;;;21.23;37.36;100122.09;5104039;27;20487;-69
2024/03/11 07:54:25;;;;;;;8.70;5.75;;;;;;;21.37;37.38;100118.44;5107825;27;20039;-69
2024/03/11 07:56:50;;;;;;;7.38;6.05;;;;;;;21.47;37.26;100123.28;5104404;27;20038;-74
2024/03/11 07:59:16;;;;;;;8.75;5.82;;;;;;;21.63;36.58;100125.50;5103561;27;20048;-73
2024/03/11 08:01:42;;;;;;;8.18;5.75;;;;;;;21.56;36.87;100133.47;5084633;28;20039;-73
2024/03/11 08:04:09;;;;;;;6.57;5.82;;;;;;;21.44;37.18;100132.47;5099795;27;20113;-74
2024/03/11 08:06:35;;;;;;;8.63;6.63;;;;;;;21.34;37.16;100145.31;5079858;28;20463;-73
2024/03/11 08:09:01;;;;;;;7.72;6.18;;;;;;;21.26;37.16;100153.47;5067792;27;20042;-73
2024/03/11 08:11:27;;;;;;;11.43;6.07;;;;;;;21.21;37.17;100151.41;5102508;27;20032;-74
2024/03/11 08:13:53;;;;;;;7.53;5.63;;;;;;;21.16;37.04;100159.13;5098246;27;20043;-73
2024/03/11 08:16:18;;;;;;;8.98;6.20;;;;;;;21.15;37.33;100169.94;5102143;27;20039;-73
2024/03/11 08:18:44;;;;;;;8.25;6.30;;;;;;;21.10;37.36;100171.38;5079313;27;20043;-71
2024/03/11 08:21:10;;;;;;;7.00;5.43;;;;;;;21.07;37.29;100163.84;5100179;27;20035;-72
2024/03/11 08:23:37;;;;;;;8.15;5.90;;;;;;;21.10;37.42;100167.91;5094376;27;20123;-72
2024/03/11 08:26:07;;;;;;;7.53;6.10;;;;;;;21.06;37.29;100161.41;5082091;28;20055;-71
2024/03/11 08:28:33;;;;;;;;;;;;;;;21.07;37.23;100163.84;5083358;28;20051;-73
2024/03/11 08:31:02;;;;;;;7.85;6.55;;;;;;;21.02;37.31;100154.88;5097950;27;20406;-73
2024/03/11 08:33:28;;;;;;;7.05;6.35;;;;;;;21.02;37.26;100163.63;5065793;28;20048;-73
2024/03/11 08:35:55;;;;;;;8.35;6.10;;;;;;;21.09;37.46;100169.75;5077619;27;20043;-75
2024/03/11 08:38:21;;;;;;;8.05;5.82;;;;;;;21.07;37.59;100173.63;5076059;28;20060;-76
2024/03/11 08:40:47;;;;;;;7.65;5.88;;;;;;;21.05;37.26;100175.66;5072238;28;20040;-73
2024/03/11 08:43:12;;;;;;;7.00;5.85;;;;;;;21.01;37.30;100183.19;5080077;28;20473;-74
2024/03/11 08:45:41;;;;;;;8.57;6.28;;;;;;;21.05;37.45;100188.88;5080157;28;20189;-73
2024/03/11 08:48:07;;;;;;;8.70;6.03;;;;;;;21.02;37.24;100194.59;5065355;28;20149;-71
2024/03/11 08:50:33;;;;;;;6.95;5.90;;;;;;;20.97;37.34;100183.78;5073774;28;20056;-72
2024/03/11 08:53:00;;;;;;;7.95;6.30;;;;;;;20.92;37.25;100181.75;5081570;28;20125;-72
2024/03/11 08:55:26;;;;;;;8.48;6.90;;;;;;;20.95;37.31;100183.16;5085939;28;20112;-72
2024/03/11 08:57:58;;;;;;;8.15;6.40;;;;;;;21.02;37.57;100199.88;5077266;28;20077;-72
2024/03/11 09:00:27;;;;;;;6.97;5.97;;;;;;;20.94;37.51;100187.66;5069850;28;20044;-73
2024/03/11 09:02:54;;;;;;;8.80;6.15;;;;;;;21.02;37.33;100208.63;5083180;28;20055;-72
2024/03/11 09:05:22;;;;;;;9.05;6.30;;;;;;;20.97;37.52;100203.13;5088977;28;20048;-72
2024/03/11 09:07:51;;;;;;;8.05;6.35;;;;;;;20.91;37.44;100200.47;5071912;28;20373;-72
2024/03/11 09:10:18;;;;;;;8.55;6.40;;;;;;;20.98;37.41;100209.22;5080463;28;20092;-71
2024/03/11 09:12:44;;;;;;;8.45;6.30;;;;;;;20.89;37.23;100198.03;5086165;28;20050;-72
2024/03/11 09:15:17;;;;;;;8.70;6.57;;;;;;;21.01;37.31;100203.56;5079194;28;20398;-72
2024/03/11 09:17:49;;;;;;;10.55;7.07;;;;;;;21.07;37.13;100200.09;5082812;28;20040;-71
2024/03/11 09:20:15;;;;;;;8.00;6.35;;;;;;;21.08;36.91;100196.41;5087167;28;20760;-72
2024/03/11 09:22:49;;;;;;;7.18;6.07;;;;;;;21.12;36.80;100209.03;5082582;28;20044;-72
2024/03/11 09:25:20;;;;;;;8.10;5.85;;;;;;;21.14;37.31;100211.47;5079387;28;20656;-72
2024/03/11 09:27:49;;;;;;;8.82;6.65;;;;;;;21.10;37.28;100226.97;5086939;28;20853;-72
2024/03/11 09:30:17;;;;;;;8.27;6.40;;;;;;;21.03;37.00;100215.56;5084231;28;20349;-72
2024/03/11 09:32:50;;;;;;;7.28;6.13;;;;;;;21.10;36.97;100221.66;5081773;28;20136;-72
2024/03/11 09:35:18;;;;;;;10.93;6.50;;;;;;;21.09;37.00;100225.34;5085615;28;20517;-72
2024/03/11 09:37:51;;;;;;;7.97;5.93;;;;;;;21.10;37.00;100221.66;5079516;28;20063;-72
2024/03/11 09:40:26;;;;;;;7.80;6.07;;;;;;;21.01;37.21;100207.00;5086047;28;20116;-72
2024/03/11 09:42:58;;;;;;;7.80;5.95;;;;;;;21.07;37.16;100215.97;5076825;27;20039;-72
2024/03/11 09:45:27;;;;;;;8.15;6.30;;;;;;;21.03;37.19;100212.91;5086867;28;20085;-72
2024/03/11 09:47:56;;;;;;;7.03;6.00;;;;;;;21.01;37.31;100216.78;5101635;27;20038;-72
2024/03/11 09:50:30;;;;;;;8.30;5.93;;;;;;;21.04;37.07;100233.06;5084098;28;20044;-71
2024/03/11 09:53:07;;;;;;;8.60;6.00;;;;;;;20.94;37.37;100211.47;5103582;27;20542;-72
2024/03/11 09:55:36;;;;;;;7.90;6.18;;;;;;;20.96;37.17;100222.66;5082168;28;20119;-72
2024/03/11 09:58:06;;;;;;;7.77;6.27;;;;;;;21.02;37.29;100232.47;5099929;27;20579;-72
2024/03/11 10:00:32;;;;;;;;;;;;;;;21.00;37.21;100239.75;5104237;27;20122;-72
2024/03/11 10:03:02;;;;;;;8.43;6.45;;;;;;;20.99;37.31;100237.31;5088523;27;20465;-72
2024/03/11 10:05:32;;;;;;;7.97;6.05;;;;;;;20.98;37.13;100223.28;5071993;27;20027;-72
2024/03/11 10:07:59;;;;;;;7.03;5.85;;;;;;;20.99;37.03;100232.84;5100561;27;20044;-72
2024/03/11 10:10:25;;;;;;;9.02;6.28;;;;;;;21.02;37.41;100234.28;5085835;28;20051;-72
2024/03/11 10:12:53;;;;;;;7.40;5.90;;;;;;;21.02;37.16;100232.47;5080821;27;20039;-72
2024/03/11 10:15:29;;;;;;;8.75;6.90;;;;;;;20.94;37.13;100222.06;5084198;27;20810;-72
2024/03/11 10:18:25;;;;;;;7.30;5.88;;;;;;;20.99;37.12;100218.78;5105972;27;20119;-73
2024/03/11 10:21:00;;;;;;;7.47;5.50;;;;;;;21.08;37.15;100236.13;5093849;27;20788;-72
2024/03/11 10:23:27;;;;;;;8.13;6.43;;;;;;;21.03;37.24;100238.56;5100855;27;20051;-73
2024/03/11 10:26:18;;;;;;;8.32;6.50;;;;;;;21.06;37.15;100244.28;5106151;27;20088;-71
2024/03/11 10:28:49;;;;;;;6.88;5.80;;;;;;;21.02;37.10;100242.25;5094310;27;20500;-72
2024/03/11 10:31:31;;;;;;;8.07;6.20;;;;;;;21.06;37.28;100248.75;5092161;27;20032;-73
2024/03/11 10:34:20;;;;;;;9.05;6.57;;;;;;;20.77;37.26;100211.03;5084430;27;20039;-74
2024/03/11 10:36:47;;;;;;;7.97;6.47;;;;;;;21.05;37.17;100252.41;5098035;27;20039;-73
2024/03/11 10:41:50;;;;;;;6.68;5.57;;;;;;;21.02;37.04;100261.59;5078134;28;20039;-73
2024/03/11 10:44:29;;;;;;;7.82;5.70;;;;;;;21.03;37.31;100255.28;5085685;27;20027;-73
2024/03/11 10:47:02;;;;;;;7.03;6.03;;;;;;;20.98;37.40;100240.97;5093893;27;20043;-72
2024/03/11 10:49:28;;;;;;;7.68;5.97;;;;;;;21.04;37.02;100237.56;5102441;28;20315;-74
2024/03/11 10:51:58;;;;;;;7.70;6.15;;;;;;;20.89;36.95;100208.63;5099359;27;20035;-72
2024/03/11 10:54:28;;;;;;;8.88;6.18;;;;;;;21.21;36.90;100248.56;5084349;28;20036;-72
2024/03/11 10:56:55;;;;;;;6.78;5.80;;;;;;;21.27;36.78;100224.75;5081776;28;20035;-72
2024/03/11 10:59:34;;;;;;;7.72;6.35;;;;;;;21.36;36.74;100212.13;5103282;27;20031;-73
2024/03/11 11:02:06;;;;;;;8.93;6.05;;;;;;;21.44;36.43;100225.16;5098848;28;20047;-73
2024/03/11 11:04:33;;;;;;;6.90;5.80;;;;;;;21.45;36.61;100229.44;5107669;28;20039;-73
2024/03/11 11:07:02;;;;;;;7.22;5.63;;;;;;;21.44;36.70;100237.59;5082751;28;20050;-72
2024/03/11 11:09:29;;;;;;;6.95;5.80;;;;;;;21.44;36.51;100249.00;5100999;28;20040;-73
2024/03/11 11:11:56;;;;;;;7.03;5.40;;;;;;;21.39;36.59;100232.94;5083878;28;20028;-73
2024/03/11 11:14:24;;;;;;;7.45;5.63;;;;;;;21.32;36.36;100229.44;5069881;28;20599;-73
2024/03/11 11:16:51;;;;;;;7.43;6.03;;;;;;;21.34;36.75;100230.06;5073581;28;20798;-72
2024/03/11 11:19:32;;;;;;;7.65;5.88;;;;;;;21.37;36.60;100234.97;5080658;28;20028;-72
2024/03/11 11:22:00;;;;;;;7.05;5.85;;;;;;;21.37;36.86;100234.97;5081809;28;20049;-73
2024/03/11 11:24:31;;;;;;;7.10;5.47;;;;;;;21.30;36.89;100219.06;5100894;28;20050;-73
2024/03/11 11:27:05;;;;;;;7.25;5.75;;;;;;;21.33;36.95;100221.28;5073718;28;20065;-72
2024/03/11 11:29:31;;;;;;;7.18;6.40;;;;;;;21.32;36.97;100216.19;5104205;28;20050;-72